createdAt,value
2019-01-09T00:01:38.588Z,96099.23
2019-01-09T00:04:35.328Z,96099.23
2019-01-09T00:07:31.073Z,96111.81
2019-01-09T00:10:28.592Z,96096.42
2019-01-09T00:13:24.005Z,96097.67
2019-01-09T00:16:20.178Z,96099.39
2019-01-09T00:19:16.933Z,96100.21
2019-01-09T00:22:13.405Z,96089.31
2019-01-09T00:25:09.141Z,96090.13
2019-01-09T00:28:05.697Z,96085.13
2019-01-09T00:31:02.139Z,96087.67
2019-01-09T00:33:59.609Z,96077.20
2019-01-09T00:36:57.161Z,96082.63
2019-01-09T00:39:54.934Z,96076.37
2019-01-09T00:42:51.717Z,96077.63
2019-01-09T00:45:47.499Z,96074.23
2019-01-09T00:48:44.618Z,96080.83
2019-01-09T00:51:40.017Z,96079.12
2019-01-09T00:54:36.557Z,96076.73
2019-01-09T00:57:33.011Z,96076.77
2019-01-09T01:00:29.757Z,96081.81
2019-01-09T01:03:49.819Z,96063.88
2019-01-09T01:07:17.000Z,96065.98
2019-01-09T01:10:46.132Z,96065.20
2019-01-09T01:14:14.908Z,96068.48
2019-01-09T01:17:49.105Z,96056.84
2019-01-09T01:21:09.730Z,96066.80
2019-01-09T01:24:29.729Z,96067.63
2019-01-09T01:27:47.700Z,96058.41
2019-01-09T01:31:19.809Z,96059.58
2019-01-09T01:34:41.340Z,96058.33
2019-01-09T01:38:15.915Z,96057.52
2019-01-09T01:41:39.463Z,96061.73
2019-01-09T01:44:56.481Z,96058.37
2019-01-09T01:48:16.039Z,96060.01
2019-01-09T01:51:41.277Z,96052.16
2019-01-09T01:55:20.720Z,96050.12
2019-01-09T01:58:59.700Z,96049.22
2019-01-09T02:02:30.149Z,96049.08
2019-01-09T02:06:03.778Z,96055.95
2019-01-09T02:09:40.304Z,96058.85
2019-01-09T02:13:11.471Z,96067.17
2019-01-09T02:16:50.905Z,96061.00
2019-01-09T02:20:00.678Z,96064.39
2019-01-09T02:23:34.895Z,96056.03
2019-01-09T02:26:57.029Z,96051.46
2019-01-09T02:30:18.790Z,96050.56
2019-01-09T02:33:16.115Z,96041.35
2019-01-09T02:36:13.722Z,96039.67
2019-01-09T02:39:09.775Z,96046.35
2019-01-09T02:42:07.329Z,96040.48
2019-01-09T02:45:03.769Z,96045.30
2019-01-09T02:48:00.001Z,96038.08
2019-01-09T02:50:55.705Z,96034.48
2019-01-09T02:53:52.181Z,96038.28
2019-01-09T02:56:48.563Z,96032.10
2019-01-09T02:59:45.244Z,96028.39
2019-01-09T03:02:41.758Z,96016.83
2019-01-09T03:05:38.387Z,96029.41
2019-01-09T03:08:33.910Z,96034.44
2019-01-09T03:11:30.546Z,96026.59
2019-01-09T03:14:27.505Z,96021.63
2019-01-09T03:17:23.040Z,96025.02
2019-01-09T03:20:20.223Z,96014.55
2019-01-09T03:23:16.843Z,96011.09
2019-01-09T03:26:13.646Z,96008.52
2019-01-09T03:29:09.376Z,96004.22
2019-01-09T03:32:06.121Z,96002.54
2019-01-09T03:35:03.816Z,95989.11
2019-01-09T03:37:58.999Z,95988.25
2019-01-09T03:40:55.800Z,95984.97
2019-01-09T03:43:53.094Z,95997.00
2019-01-09T03:46:49.122Z,95988.17
2019-01-09T03:49:44.669Z,95985.67
2019-01-09T03:52:41.279Z,95993.17
2019-01-09T03:55:37.297Z,95988.96
2019-01-09T03:58:33.912Z,95982.28
2019-01-09T04:01:30.683Z,95972.21
2019-01-09T04:04:26.406Z,95975.49
2019-01-09T04:07:22.913Z,95981.31
2019-01-09T04:10:18.238Z,95953.83
2019-01-09T04:13:15.685Z,95971.31
2019-01-09T04:16:11.507Z,95964.72
2019-01-09T04:19:07.927Z,95964.72
2019-01-09T04:22:03.846Z,95972.02
2019-01-09T04:25:00.729Z,95957.03
2019-01-09T04:27:57.545Z,95956.95
2019-01-09T04:30:53.321Z,95953.09
2019-01-09T04:33:50.832Z,95955.16
2019-01-09T04:36:51.277Z,95960.98
2019-01-09T04:39:44.612Z,95947.55
2019-01-09T04:42:41.567Z,95945.80
2019-01-09T04:45:39.398Z,95952.05
2019-01-09T04:48:35.994Z,95953.22
2019-01-09T04:51:31.761Z,95949.83
2019-01-09T04:54:29.392Z,95956.50
2019-01-09T04:57:25.114Z,95956.53
2019-01-09T05:00:21.240Z,95963.64
2019-01-09T05:03:18.052Z,95966.49
2019-01-09T05:06:14.927Z,95965.24
2019-01-09T05:09:11.748Z,95966.49
2019-01-09T05:12:07.266Z,95966.49
2019-01-09T05:15:04.933Z,95965.16
2019-01-09T05:18:04.369Z,95964.81
2019-01-09T05:21:01.235Z,95961.41
2019-01-09T05:23:59.019Z,95959.70
2019-01-09T05:26:53.959Z,95969.34
2019-01-09T05:29:50.554Z,95971.41
2019-01-09T05:32:47.258Z,95972.19
2019-01-09T05:35:44.127Z,95971.41
2019-01-09T05:38:40.968Z,95967.27
2019-01-09T05:41:36.514Z,95971.41
2019-01-09T05:44:33.066Z,95975.59
2019-01-09T05:47:28.772Z,95969.34
2019-01-09T05:50:25.861Z,95978.08
2019-01-09T05:53:21.235Z,95974.84
2019-01-09T05:56:17.815Z,95974.41
2019-01-09T05:59:14.460Z,95971.95
2019-01-09T06:02:09.992Z,95967.39
2019-01-09T06:05:08.756Z,95959.46
2019-01-09T06:08:04.208Z,95960.71
2019-01-09T06:11:00.754Z,95949.47
2019-01-09T06:13:56.638Z,95953.22
2019-01-09T06:16:52.419Z,95950.72
2019-01-09T06:19:49.156Z,95949.16
2019-01-09T06:22:44.718Z,95954.63
2019-01-09T06:25:42.673Z,95951.77
2019-01-09T06:28:38.279Z,95955.91
2019-01-09T06:31:35.841Z,95955.52
2019-01-09T06:34:32.744Z,95950.52
2019-01-09T06:37:28.695Z,95957.66
2019-01-09T06:40:24.412Z,95963.55
2019-01-09T06:43:22.134Z,95963.52
2019-01-09T06:46:19.965Z,95958.09
2019-01-09T06:49:17.634Z,95965.70
2019-01-09T06:52:14.380Z,95971.13
2019-01-09T06:55:10.958Z,95968.59
2019-01-09T06:58:07.209Z,95965.16
2019-01-09T07:01:02.988Z,95966.80
2019-01-09T07:03:59.772Z,95965.08
2019-01-09T07:06:55.289Z,95973.28
2019-01-09T07:09:52.122Z,95974.09
2019-01-09T07:12:47.696Z,95979.45
2019-01-09T07:15:45.548Z,95975.59
2019-01-09T07:18:42.322Z,95989.67
2019-01-09T07:21:45.479Z,95993.50
2019-01-09T07:24:34.628Z,96007.31
2019-01-09T07:27:31.221Z,96013.60
2019-01-09T07:30:26.484Z,96022.06
2019-01-09T07:33:23.035Z,96023.37
2019-01-09T07:36:19.744Z,96031.74
2019-01-09T07:39:16.264Z,96021.03
2019-01-09T07:42:13.171Z,96019.66
2019-01-09T07:45:08.833Z,96012.60
2019-01-09T07:48:05.667Z,96014.37
2019-01-09T07:51:02.228Z,96012.38
2019-01-09T07:53:58.323Z,96013.11
2019-01-09T07:56:55.024Z,96010.81
2019-01-09T07:59:51.462Z,96002.16
2019-01-09T08:02:46.977Z,96011.91
2019-01-09T08:05:44.444Z,96011.09
2019-01-09T08:08:40.069Z,96009.02
2019-01-09T08:11:36.490Z,96012.77
2019-01-09T08:14:32.123Z,96011.98
2019-01-09T08:17:28.652Z,96022.06
2019-01-09T08:20:25.191Z,96020.81
2019-01-09T08:23:22.177Z,96025.45
2019-01-09T08:26:19.806Z,96033.85
2019-01-09T08:29:15.293Z,96033.50
2019-01-09T08:32:11.877Z,96023.16
2019-01-09T08:35:07.316Z,96033.55
2019-01-09T08:38:03.333Z,96038.93
2019-01-09T08:40:58.595Z,96041.89
2019-01-09T08:43:55.368Z,96051.58
2019-01-09T08:46:53.203Z,96053.30
2019-01-09T08:49:49.748Z,96050.92
2019-01-09T08:52:47.238Z,96053.42
2019-01-09T08:55:42.951Z,96051.74
2019-01-09T08:58:40.693Z,96046.78
2019-01-09T09:01:37.255Z,96050.19
2019-01-09T09:04:33.117Z,96050.19
2019-01-09T09:07:30.738Z,96057.06
2019-01-09T09:10:26.337Z,96060.45
2019-01-09T09:13:23.144Z,96063.85
2019-01-09T09:16:19.874Z,96070.61
2019-01-09T09:19:16.708Z,96077.13
2019-01-09T09:22:12.323Z,96080.28
2019-01-09T09:25:09.090Z,96090.98
2019-01-09T09:28:03.946Z,96090.08
2019-01-09T09:31:00.203Z,96091.59
2019-01-09T09:33:56.849Z,96099.00
2019-01-09T09:36:53.394Z,96103.79
2019-01-09T09:39:54.746Z,96101.30
2019-01-09T09:42:51.367Z,96107.50
2019-01-09T09:45:48.091Z,96111.98
2019-01-09T09:48:44.747Z,96105.30
2019-01-09T09:51:41.387Z,96110.30
2019-01-09T09:54:38.933Z,96116.80
2019-01-09T09:57:35.986Z,96115.98
2019-01-09T10:00:35.836Z,96118.48
2019-01-09T10:03:31.329Z,96109.09
2019-01-09T10:06:27.733Z,96111.55
2019-01-09T10:09:26.271Z,96116.50
2019-01-09T10:12:21.663Z,96110.14
2019-01-09T10:15:19.432Z,96118.09
2019-01-09T10:18:14.833Z,96114.70
2019-01-09T10:21:11.371Z,96118.09
2019-01-09T10:24:06.877Z,96114.00
2019-01-09T10:27:03.649Z,96119.44
2019-01-09T10:29:59.540Z,96106.13
2019-01-09T10:32:56.306Z,96106.13
2019-01-09T10:35:51.993Z,96117.23
2019-01-09T10:38:48.958Z,96113.48
2019-01-09T10:41:45.571Z,96108.49
2019-01-09T10:44:41.291Z,96114.18
2019-01-09T10:47:37.815Z,96112.67
2019-01-09T10:50:33.232Z,96116.08
2019-01-09T10:53:30.031Z,96116.89
2019-01-09T10:56:26.725Z,96113.58
2019-01-09T10:59:24.380Z,96117.67
2019-01-09T11:02:22.031Z,96116.93
2019-01-09T11:05:17.842Z,96121.58
2019-01-09T11:08:14.372Z,96115.38
2019-01-09T11:11:10.130Z,96104.65
2019-01-09T11:14:06.626Z,96111.67
2019-01-09T11:17:03.014Z,96107.07
2019-01-09T11:19:58.548Z,96112.97
2019-01-09T11:22:55.352Z,96111.98
2019-01-09T11:25:50.741Z,96107.89
2019-01-09T11:28:47.280Z,96106.37
2019-01-09T11:31:45.045Z,96102.37
2019-01-09T11:34:40.793Z,96095.38
2019-01-09T11:37:39.175Z,96095.73
2019-01-09T11:40:34.601Z,96092.29
2019-01-09T11:43:31.370Z,96089.88
2019-01-09T11:46:26.858Z,96089.09
2019-01-09T11:49:23.853Z,96087.45
2019-01-09T11:52:20.317Z,96087.49
2019-01-09T11:55:19.116Z,96084.18
2019-01-09T11:58:16.707Z,96082.66
2019-01-09T12:01:12.315Z,96090.16
2019-01-09T12:04:08.395Z,96088.21
2019-01-09T12:07:05.201Z,96088.76
2019-01-09T12:10:02.034Z,96088.84
2019-01-09T12:12:58.573Z,96083.92
2019-01-09T12:15:54.118Z,96084.74
2019-01-09T12:18:52.711Z,96084.66
2019-01-09T12:21:48.235Z,96084.93
2019-01-09T12:24:44.814Z,96095.23
2019-01-09T12:27:40.123Z,96095.73
2019-01-09T12:30:39.677Z,96101.12
2019-01-09T12:33:36.516Z,96091.55
2019-01-09T12:36:33.215Z,96099.83
2019-01-09T12:39:29.737Z,96099.34
2019-01-09T12:42:25.586Z,96099.19
2019-01-09T12:45:22.263Z,96094.84
2019-01-09T12:48:18.435Z,96098.50
2019-01-09T12:51:15.310Z,96106.81
2019-01-09T12:54:12.243Z,96105.65
2019-01-09T12:57:08.913Z,96109.74
2019-01-09T13:00:07.488Z,96115.08
2019-01-09T13:03:03.306Z,96115.98
2019-01-09T13:06:00.082Z,96125.46
2019-01-09T13:08:56.715Z,96127.02
2019-01-09T13:11:54.617Z,96125.38
2019-01-09T13:14:49.870Z,96129.12
2019-01-09T13:17:46.468Z,96127.27
2019-01-09T13:20:43.289Z,96130.41
2019-01-09T13:23:40.058Z,96130.75
2019-01-09T13:26:36.635Z,96131.13
2019-01-09T13:29:32.340Z,96135.55
2019-01-09T13:32:28.971Z,96136.84
2019-01-09T13:35:24.556Z,96138.05
2019-01-09T13:38:21.278Z,96140.38
2019-01-09T13:41:17.876Z,96144.63
2019-01-09T13:44:14.289Z,96150.88
2019-01-09T13:47:09.868Z,96150.31
2019-01-09T13:50:06.620Z,96152.70
2019-01-09T13:53:04.203Z,96154.39
2019-01-09T13:56:00.048Z,96156.20
2019-01-09T13:58:56.681Z,96158.61
2019-01-09T14:01:54.350Z,96160.24
2019-01-09T14:04:50.881Z,96164.03
2019-01-09T14:07:46.179Z,96173.67
2019-01-09T14:10:48.242Z,96173.58
2019-01-09T14:13:45.440Z,96173.45
2019-01-09T14:16:41.220Z,96176.98
2019-01-09T14:19:37.753Z,96176.17
2019-01-09T14:22:33.407Z,96169.94
2019-01-09T14:25:29.736Z,96175.17
2019-01-09T14:28:25.275Z,96178.81
2019-01-09T14:31:22.903Z,96186.64
2019-01-09T14:34:19.537Z,96184.88
2019-01-09T14:37:16.468Z,96195.59
2019-01-09T14:40:12.920Z,96194.81
2019-01-09T14:43:08.577Z,96209.78
2019-01-09T14:46:05.243Z,96209.31
2019-01-09T14:49:02.150Z,96211.80
2019-01-09T14:51:59.912Z,96212.61
2019-01-09T14:54:55.876Z,96213.86
2019-01-09T14:57:52.672Z,96218.23
2019-01-09T15:00:49.127Z,96216.88
2019-01-09T15:03:46.396Z,96214.88
2019-01-09T15:06:41.752Z,96217.89
2019-01-09T15:09:38.570Z,96216.12
2019-01-09T15:12:36.199Z,96224.37
2019-01-09T15:15:31.558Z,96218.08
2019-01-09T15:18:28.131Z,96223.84
2019-01-09T15:21:23.569Z,96223.41
2019-01-09T15:24:20.139Z,96219.09
2019-01-09T15:27:16.425Z,96221.48
2019-01-09T15:30:13.397Z,96220.63
2019-01-09T15:33:11.191Z,96227.15
2019-01-09T15:36:07.997Z,96225.46
2019-01-09T15:39:04.649Z,96229.54
2019-01-09T15:42:01.017Z,96239.62
2019-01-09T15:44:57.765Z,96243.70
2019-01-09T15:47:53.277Z,96251.98
2019-01-09T15:50:49.043Z,96253.09
2019-01-09T15:53:45.582Z,96258.89
2019-01-09T15:56:42.240Z,96255.09
2019-01-09T15:59:39.063Z,96260.09
2019-01-09T16:02:36.854Z,96259.17
2019-01-09T16:05:34.838Z,96261.09
2019-01-09T16:08:30.768Z,96269.88
2019-01-09T16:11:27.475Z,96260.70
2019-01-09T16:14:24.036Z,96261.48
2019-01-09T16:17:22.118Z,96263.48
2019-01-09T16:20:18.279Z,96271.63
2019-01-09T16:23:15.039Z,96273.84
2019-01-09T16:26:11.987Z,96277.14
2019-01-09T16:29:09.857Z,96279.48
2019-01-09T16:32:06.544Z,96278.72
2019-01-09T16:35:03.435Z,96283.56
2019-01-09T16:38:00.087Z,96280.69
2019-01-09T16:40:55.574Z,96278.25
2019-01-09T16:43:52.242Z,96274.17
2019-01-09T16:46:47.685Z,96281.59
2019-01-09T16:49:45.175Z,96286.06
2019-01-09T16:52:41.702Z,96286.97
2019-01-09T16:55:38.456Z,96280.19
2019-01-09T16:58:34.773Z,96283.56
2019-01-09T17:01:30.175Z,96284.48
2019-01-09T17:04:27.964Z,96288.92
2019-01-09T17:07:24.268Z,96286.06
2019-01-09T17:10:19.465Z,96284.75
2019-01-09T17:13:17.352Z,96288.44
2019-01-09T17:16:13.709Z,96294.34
2019-01-09T17:19:11.352Z,96303.41
2019-01-09T17:22:09.230Z,96299.33
2019-01-09T17:25:06.291Z,96306.92
2019-01-09T17:28:03.158Z,96306.00
2019-01-09T17:30:58.862Z,96310.98
2019-01-09T17:33:56.269Z,96314.29
2019-01-09T17:36:53.594Z,96310.11
2019-01-09T17:39:51.011Z,96315.42
2019-01-09T17:42:47.913Z,96323.56
2019-01-09T17:45:43.763Z,96319.50
2019-01-09T17:48:40.510Z,96319.83
2019-01-09T17:51:37.118Z,96324.88
2019-01-09T17:54:35.018Z,96331.48
2019-01-09T17:57:30.813Z,96321.46
2019-01-09T18:00:31.627Z,96327.97
2019-01-09T18:03:28.092Z,96328.88
2019-01-09T18:06:24.549Z,96324.81
2019-01-09T18:09:28.288Z,96327.64
2019-01-09T18:12:24.981Z,96329.80
2019-01-09T18:15:22.721Z,96335.11
2019-01-09T18:18:19.464Z,96336.36
2019-01-09T18:21:16.150Z,96335.50
2019-01-09T18:24:12.993Z,96335.45
2019-01-09T18:27:09.931Z,96344.59
2019-01-09T18:30:06.829Z,96340.85
2019-01-09T18:33:19.223Z,96342.01
2019-01-09T18:36:40.808Z,96343.25
2019-01-09T18:40:21.031Z,96349.63
2019-01-09T18:44:03.091Z,96346.08
2019-01-09T18:47:32.148Z,96355.61
2019-01-09T18:51:18.765Z,96356.91
2019-01-09T18:54:14.159Z,96354.36
2019-01-09T18:57:10.924Z,96352.67
2019-01-09T19:00:06.561Z,96355.16
2019-01-09T19:03:03.372Z,96361.84
2019-01-09T19:06:00.249Z,96356.85
2019-01-09T19:08:56.263Z,96367.27
2019-01-09T19:11:54.244Z,96365.13
2019-01-09T19:14:51.104Z,96377.45
2019-01-09T19:17:47.899Z,96379.23
2019-01-09T19:20:43.722Z,96383.47
2019-01-09T19:23:40.479Z,96392.55
2019-01-09T19:26:37.275Z,96392.88
2019-01-09T19:29:33.972Z,96396.47
2019-01-09T19:32:30.271Z,96394.90
2019-01-09T19:35:26.636Z,96401.61
2019-01-09T19:38:24.554Z,96398.19
2019-01-09T19:41:20.218Z,96405.61
2019-01-09T19:44:17.311Z,96400.69
2019-01-09T19:47:14.261Z,96405.67
2019-01-09T19:50:11.233Z,96405.61
2019-01-09T19:53:08.158Z,96415.64
2019-01-09T19:56:04.282Z,96412.34
2019-01-09T19:59:02.252Z,96424.04
2019-01-09T20:01:58.636Z,96417.00
2019-01-09T20:04:56.625Z,96418.25
2019-01-09T20:07:52.471Z,96418.91
2019-01-09T20:10:49.454Z,96430.48
2019-01-09T20:13:46.394Z,96431.36
2019-01-09T20:16:44.425Z,96432.28
2019-01-09T20:19:40.527Z,96433.86
2019-01-09T20:22:37.457Z,96429.67
2019-01-09T20:25:34.271Z,96437.03
2019-01-09T20:28:31.362Z,96438.78
2019-01-09T20:31:27.867Z,96442.94
2019-01-09T20:34:23.651Z,96439.11
2019-01-09T20:37:22.574Z,96443.83
2019-01-09T20:40:22.546Z,96443.44
2019-01-09T20:43:20.376Z,96451.30
2019-01-09T20:46:17.015Z,96461.63
2019-01-09T20:49:14.156Z,96458.78
2019-01-09T20:52:10.871Z,96466.27
2019-01-09T20:55:07.689Z,96462.08
2019-01-09T20:58:04.311Z,96468.31
2019-01-09T21:00:59.550Z,96470.00
2019-01-09T21:03:56.563Z,96470.47
2019-01-09T21:06:54.464Z,96475.34
2019-01-09T21:09:50.666Z,96475.34
2019-01-09T21:12:48.430Z,96470.36
2019-01-09T21:15:45.006Z,96472.05
2019-01-09T21:18:44.345Z,96474.54
2019-01-09T21:21:41.180Z,96468.63
2019-01-09T21:24:36.942Z,96480.33
2019-01-09T21:27:41.823Z,96472.05
2019-01-09T21:30:30.580Z,96472.84
2019-01-09T21:33:27.167Z,96478.72
2019-01-09T21:36:25.097Z,96483.70
2019-01-09T21:39:25.635Z,96484.51
2019-01-09T21:42:22.587Z,96490.36
2019-01-09T21:45:20.491Z,96487.00
2019-01-09T21:48:17.510Z,96494.48
2019-01-09T21:51:13.245Z,96496.65
2019-01-09T21:54:09.948Z,96495.28
2019-01-09T21:57:07.140Z,96491.12
2019-01-09T22:00:01.814Z,96495.28
2019-01-09T22:02:58.555Z,96500.27
2019-01-09T22:05:55.204Z,96502.66
2019-01-09T22:08:51.729Z,96495.92
2019-01-09T22:11:49.690Z,96499.41
2019-01-09T22:14:46.267Z,96503.20
2019-01-09T22:17:46.277Z,96504.13
2019-01-09T22:20:40.730Z,96502.02
2019-01-09T22:23:36.730Z,96501.95
2019-01-09T22:26:32.827Z,96501.89
2019-01-09T22:29:28.383Z,96503.53
2019-01-09T22:32:24.860Z,96512.73
2019-01-09T22:35:21.730Z,96516.79
2019-01-09T22:38:19.384Z,96514.30
2019-01-09T22:41:14.911Z,96520.05
2019-01-09T22:44:11.482Z,96514.30
2019-01-09T22:47:08.341Z,96513.38
2019-01-09T22:50:04.945Z,96517.17
2019-01-09T22:53:01.589Z,96515.06
2019-01-09T22:55:57.414Z,96514.94
2019-01-09T22:58:55.345Z,96527.47
2019-01-09T23:01:51.215Z,96520.05
2019-01-09T23:04:47.801Z,96527.53
2019-01-09T23:07:44.178Z,96522.54
2019-01-09T23:10:39.970Z,96524.59
2019-01-09T23:13:35.585Z,96531.59
2019-01-09T23:16:32.123Z,96525.67
2019-01-09T23:19:31.063Z,96531.59
2019-01-09T23:22:28.620Z,96526.28
2019-01-09T23:25:24.305Z,96527.02
2019-01-09T23:28:21.004Z,96526.60
2019-01-09T23:31:16.390Z,96525.03
2019-01-09T23:34:12.892Z,96524.59
2019-01-09T23:37:07.592Z,96530.82
2019-01-09T23:40:05.154Z,96530.75
2019-01-09T23:43:02.269Z,96530.22
2019-01-09T23:45:58.061Z,96534.02
2019-01-09T23:48:55.816Z,96530.75
2019-01-09T23:51:51.404Z,96533.63
2019-01-09T23:54:48.062Z,96536.57
2019-01-09T23:57:43.561Z,96538.14
